Time;durP1;ratioP1;P1;durP2;ratioP2;P2;SDS_P1;SDS_P2;PMS_P1;PMS_P2;Temp;Humidity;BMP_temperature;BMP_pressure;BME280_temperature;BME280_humidity;BME280_pressure;Samples;Min_cycle;Max_cycle;Signal;HPM_P1;HPM_P2
2022/06/17 00:00:31;;;;;;;;;;;;;;;;;;5089784;28;19959;-69
2022/06/17 00:02:57;;;;;;;;;;;;;;;;;;5091658;28;19920;-69
2022/06/17 00:05:23;;;;;;;;;;;;;;;;;;5092257;28;19924;-69
2022/06/17 00:07:49;;;;;;;;;;;;;;;;;;5092058;28;20367;-69
2022/06/17 00:10:15;;;;;;;;;;;;;;;;;;5089897;28;19920;-69
2022/06/17 00:12:41;;;;;;;;;;;;;;;;;;5092226;28;20263;-69
2022/06/17 00:15:13;;;;;;;;;;;;;;;;;;5073888;28;20008;-69
2022/06/17 00:17:39;;;;;;;;;;;;;;;;;;5090293;28;20490;-69
2022/06/17 00:20:05;;;;;;;;;;;;;;;;;;5091919;28;19924;-69
2022/06/17 00:22:31;;;;;;;;;;;;;;;;;;5092129;28;20007;-69
2022/06/17 00:24:57;;;;;;;;;;;;;;;;;;5091419;28;20003;-69
2022/06/17 00:27:23;;;;;;;;;;;;;;;;;;5073152;28;20279;-69
2022/06/17 00:29:49;;;;;;;;;;;;;;;;;;5070514;28;19929;-69
2022/06/17 00:32:14;;;;;;;;;;;;;;;;;;5071226;28;20294;-69
2022/06/17 00:34:40;;;;;;;;;;;;;;;;;;5071799;28;19924;-69
2022/06/17 00:37:07;;;;;;;;;;;;;;;;;;5070244;28;20343;-69
2022/06/17 00:39:33;;;;;;;;;;;;;;;;;;5069699;28;20080;-69
2022/06/17 00:41:59;;;;;;;;;;;;;;;;;;5071474;28;19963;-69
2022/06/17 00:44:25;;;;;;;;;;;;;;;;;;5071842;28;19969;-69
2022/06/17 00:46:51;;;;;;;;;;;;;;;;;;5070946;28;19928;-69
2022/06/17 00:49:17;;;;;;;;;;;;;;;;;;5071442;28;20021;-69
2022/06/17 00:51:46;;;;;;;;;;;;;;;;;;5071572;28;19960;-69
2022/06/17 00:54:11;;;;;;;;;;;;;;;;;;5070627;28;19928;-69
2022/06/17 00:56:37;;;;;;;;;;;;;;;;;;5071811;28;19927;-69
2022/06/17 00:59:04;;;;;;;;;;;;;;;;;;5071292;28;19943;-69
2022/06/17 01:01:30;;;;;;;;;;;;;;;;;;5070647;28;19977;-69
2022/06/17 01:03:56;;;;;;;;;;;;;;;;;;5071135;28;19920;-69
2022/06/17 01:06:22;;;;;;;;;;;;;;;;;;5071263;28;20043;-69
2022/06/17 01:11:32;;;;;;;;;;;;;;;;;;5073195;28;20286;-69
2022/06/17 01:13:58;;;;;;;;;;;;;;;;;;5073984;28;19928;-69
2022/06/17 01:16:24;;;;;;;;;;;;;;;;;;5074467;28;20055;-69
2022/06/17 01:18:50;;;;;;;;;;;;;;;;;;5074774;28;20294;-69
2022/06/17 01:21:16;;;;;;;;;;;;;;;;;;5074552;28;20015;-69
2022/06/17 01:23:42;;;;;;;;;;;;;;;;;;5074339;28;19929;-69
2022/06/17 01:26:08;;;;;;;;;;;;;;;;;;5082971;28;19973;-69
2022/06/17 01:28:34;;;;;;;;;;;;;;;;;;5093436;28;19920;-69
2022/06/17 01:31:00;;;;;;;;;;;;;;;;;;5094494;28;19924;-69
2022/06/17 01:33:26;;;;;;;;;;;;;;;;;;5094905;28;19974;-69
2022/06/17 01:35:52;;;;;;;;;;;;;;;;;;5095106;28;19928;-69
2022/06/17 01:38:18;;;;;;;;;;;;;;;;;;5094319;28;20012;-69
2022/06/17 01:40:44;;;;;;;;;;;;;;;;;;5094828;28;19935;-69
2022/06/17 01:43:10;;;;;;;;;;;;;;;;;;5094462;28;19924;-69
2022/06/17 01:45:36;;;;;;;;;;;;;;;;;;5094053;28;19970;-69
2022/06/17 01:48:02;;;;;;;;;;;;;;;;;;5094840;28;20078;-69
2022/06/17 01:50:28;;;;;;;;;;;;;;;;;;5094449;28;19920;-69
2022/06/17 01:52:54;;;;;;;;;;;;;;;;;;5092953;28;19943;-69
2022/06/17 01:55:19;;;;;;;;;;;;;;;;;;5094438;28;20313;-69
2022/06/17 01:57:45;;;;;;;;;;;;;;;;;;5093246;28;20286;-69
2022/06/17 02:00:11;;;;;;;;;;;;;;;;;;5093140;28;20029;-69
2022/06/17 02:02:37;;;;;;;;;;;;;;;;;;5093940;28;19959;-69
2022/06/17 02:05:03;;;;;;;;;;;;;;;;;;5092806;28;20345;-69
2022/06/17 02:07:29;;;;;;;;;;;;;;;;;;5094164;28;19920;-69
2022/06/17 02:09:55;;;;;;;;;;;;;;;;;;5093630;28;19921;-69
2022/06/17 02:12:21;;;;;;;;;;;;;;;;;;5094262;28;19924;-69
2022/06/17 02:14:47;;;;;;;;;;;;;;;;;;5094282;28;19920;-69
2022/06/17 02:17:13;;;;;;;;;;;;;;;;;;5092041;28;19920;-69
2022/06/17 02:19:39;;;;;;;;;;;;;;;;;;5075481;28;19920;-69
2022/06/17 02:22:05;;;;;;;;;;;;;;;;;;5093742;28;20295;-69
2022/06/17 02:24:31;;;;;;;;;;;;;;;;;;5092998;28;19920;-69
2022/06/17 02:26:57;;;;;;;;;;;;;;;;;;5078895;28;19928;-69
2022/06/17 02:29:23;;;;;;;;;;;;;;;;;;5072269;28;20291;-69
2022/06/17 02:31:49;;;;;;;;;;;;;;;;;;5072702;28;20336;-69
2022/06/17 02:34:15;;;;;;;;;;;;;;;;;;5072052;28;19920;-69
2022/06/17 02:36:41;;;;;;;;;;;;;;;;;;5073737;28;19928;-69
2022/06/17 02:39:07;;;;;;;;;;;;;;;;;;5071477;28;19943;-69
2022/06/17 02:41:33;;;;;;;;;;;;;;;;;;5073538;28;19921;-69
2022/06/17 02:43:59;;;;;;;;;;;;;;;;;;5071742;28;19924;-69
2022/06/17 02:46:25;;;;;;;;;;;;;;;;;;5072686;28;20279;-69
2022/06/17 02:48:50;;;;;;;;;;;;;;;;;;5071895;28;19920;-69
2022/06/17 02:51:16;;;;;;;;;;;;;;;;;;5073250;28;19931;-69
2022/06/17 02:53:42;;;;;;;;;;;;;;;;;;5072349;28;19924;-69
2022/06/17 02:56:08;;;;;;;;;;;;;;;;;;5071628;28;19931;-69
2022/06/17 02:58:34;;;;;;;;;;;;;;;;;;5073194;28;20349;-69
2022/06/17 03:01:00;;;;;;;;;;;;;;;;;;5072386;28;19943;-69
2022/06/17 03:03:26;;;;;;;;;;;;;;;;;;5072985;28;19926;-69
2022/06/17 03:05:52;;;;;;;;;;;;;;;;;;5071393;28;19970;-69
2022/06/17 03:08:18;;;;;;;;;;;;;;;;;;5072188;28;20452;-69
2022/06/17 03:10:44;;;;;;;;;;;;;;;;;;5071318;28;19920;-69
2022/06/17 03:13:10;;;;;;;;;;;;;;;;;;5072930;28;19970;-69
2022/06/17 03:15:36;;;;;;;;;;;;;;;;;;5072329;28;19928;-69
2022/06/17 03:18:02;;;;;;;;;;;;;;;;;;5071401;28;19928;-69
2022/06/17 03:20:28;;;;;;;;;;;;;;;;;;5072676;28;20354;-69
2022/06/17 03:22:54;;;;;;;;;;;;;;;;;;5070364;28;19924;-69
2022/06/17 03:25:20;;;;;;;;;;;;;;;;;;5055747;28;19989;-69
2022/06/17 03:27:46;;;;;;;;;;;;;;;;;;5091374;28;19920;-69
2022/06/17 03:30:12;;;;;;;;;;;;;;;;;;5091738;28;20417;-69
2022/06/17 03:32:38;;;;;;;;;;;;;;;;;;5074420;28;19920;-69
2022/06/17 03:35:04;;;;;;;;;;;;;;;;;;5092564;28;19967;-69
2022/06/17 03:37:30;;;;;;;;;;;;;;;;;;5090800;28;19998;-69
2022/06/17 03:39:56;;;;;;;;;;;;;;;;;;5092475;28;19920;-69
2022/06/17 03:42:22;;;;;;;;;;;;;;;;;;5092267;28;19990;-69
2022/06/17 03:44:48;;;;;;;;;;;;;;;;;;5090780;28;19920;-69
2022/06/17 03:47:14;;;;;;;;;;;;;;;;;;5092444;28;19971;-69
2022/06/17 03:49:40;;;;;;;;;;;;;;;;;;5092673;28;20014;-69
2022/06/17 03:52:06;;;;;;;;;;;;;;;;;;5092046;28;20461;-69
2022/06/17 03:54:32;;;;;;;;;;;;;;;;;;5073884;28;19968;-69
2022/06/17 03:56:58;;;;;;;;;;;;;;;;;;5092619;28;20072;-69
2022/06/17 03:59:24;;;;;;;;;;;;;;;;;;5091767;28;20492;-69
2022/06/17 04:01:51;;;;;;;;;;;;;;;;;;5092438;28;19920;-69
2022/06/17 04:04:17;;;;;;;;;;;;;;;;;;5092527;28;20355;-69
2022/06/17 04:06:43;;;;;;;;;;;;;;;;;;5090015;28;20352;-69
2022/06/17 04:09:09;;;;;;;;;;;;;;;;;;5092400;28;19920;-69
2022/06/17 04:11:34;;;;;;;;;;;;;;;;;;5092121;28;20281;-69
2022/06/17 04:14:00;;;;;;;;;;;;;;;;;;5091397;28;19989;-69
2022/06/17 04:16:26;;;;;;;;;;;;;;;;;;5090675;28;19926;-69
2022/06/17 04:18:52;;;;;;;;;;;;;;;;;;5092191;28;20059;-69
2022/06/17 04:21:18;;;;;;;;;;;;;;;;;;5089826;28;19924;-69
2022/06/17 04:23:46;;;;;;;;;;;;;;;;;;5091845;28;19920;-69
2022/06/17 04:26:12;;;;;;;;;;;;;;;;;;5083217;28;19951;-69
2022/06/17 04:28:38;;;;;;;;;;;;;;;;;;5069680;28;19924;-69
2022/06/17 04:31:06;;;;;;;;;;;;;;;;;;5071743;28;19955;-69
2022/06/17 04:33:32;;;;;;;;;;;;;;;;;;5071795;28;19929;-69
2022/06/17 04:35:58;;;;;;;;;;;;;;;;;;5071050;28;20522;-69
2022/06/17 04:38:24;;;;;;;;;;;;;;;;;;5071720;28;20321;-69
2022/06/17 04:40:50;;;;;;;;;;;;;;;;;;5071538;28;20014;-69
2022/06/17 04:43:16;;;;;;;;;;;;;;;;;;5070567;28;19931;-69
2022/06/17 04:45:42;;;;;;;;;;;;;;;;;;5070560;28;19928;-69
2022/06/17 04:48:07;;;;;;;;;;;;;;;;;;5074553;28;19993;-69
2022/06/17 04:50:34;;;;;;;;;;;;;;;;;;5075149;28;19920;-69
2022/06/17 04:53:00;;;;;;;;;;;;;;;;;;5074186;28;19927;-69
2022/06/17 04:55:28;;;;;;;;;;;;;;;;;;5073828;28;19920;-69
2022/06/17 04:57:54;;;;;;;;;;;;;;;;;;5075199;28;19928;-69
2022/06/17 05:00:20;;;;;;;;;;;;;;;;;;5075099;28;20275;-69
2022/06/17 05:02:46;;;;;;;;;;;;;;;;;;5075353;28;19924;-69
2022/06/17 05:05:12;;;;;;;;;;;;;;;;;;5081587;28;19966;-70
2022/06/17 05:07:38;;;;;;;;;;;;;;;;;;5092998;28;19920;-69
2022/06/17 05:10:07;;;;;;;;;;;;;;;;;;5093561;28;20496;-69
2022/06/17 05:12:33;;;;;;;;;;;;;;;;;;5095058;28;20020;-69
2022/06/17 05:14:59;;;;;;;;;;;;;;;;;;5113727;28;20266;-69
2022/06/17 05:17:25;;;;;;;;;;;;;;;;;;5109413;28;19927;-69
2022/06/17 05:19:53;;;;;;;;;;;;;;;;;;5094815;28;19924;-69
2022/06/17 05:22:19;;;;;;;;;;;;;;;;;;5094100;28;20336;-69
2022/06/17 05:24:45;;;;;;;;;;;;;;;;;;5093223;28;19926;-69
2022/06/17 05:27:11;;;;;;;;;;;;;;;;;;5094984;28;19967;-69
2022/06/17 05:29:36;;;;;;;;;;;;;;;;;;5094193;28;19956;-69
2022/06/17 05:32:02;;;;;;;;;;;;;;;;;;5094965;28;19960;-69
2022/06/17 05:34:28;;;;;;;;;;;;;;;;;;5094650;28;19970;-69
2022/06/17 05:36:56;;;;;;;;;;;;;;;;;;5092753;28;20011;-68
2022/06/17 05:39:22;;;;;;;;;;;;;;;;;;5094818;28;19938;-68
2022/06/17 05:41:48;;;;;;;;;;;;;;;;;;5092680;28;19923;-68
2022/06/17 05:44:15;;;;;;;;;;;;;;;;;;5092164;28;19962;-68
2022/06/17 05:46:43;;;;;;;;;;;;;;;;;;5094485;28;19947;-68
2022/06/17 05:49:09;;;;;;;;;;;;;;;;;;5093018;28;19947;-68
2022/06/17 05:51:35;;;;;;;;;;;;;;;;;;5093477;28;20406;-68
2022/06/17 05:54:02;;;;;;;;;;;;;;;;;;5093489;28;19978;-71
2022/06/17 05:56:28;;;;;;;;;;;;;;;;;;5092810;28;19920;-70
2022/06/17 05:58:54;;;;;;;;;;;;;;;;;;5090723;28;20317;-71
2022/06/17 06:01:19;;;;;;;;;;;;;;;;;;5092660;28;20352;-66
2022/06/17 06:03:46;;;;;;;;;;;;;;;;;;5093731;28;19942;-67
2022/06/17 06:06:11;;;;;;;;;;;;;;;;;;5091666;28;19942;-67
2022/06/17 06:08:37;;;;;;;;;;;;;;;;;;5099792;28;19920;-73
2022/06/17 06:11:09;;;;;;;;;;;;;;;;;;5076023;28;20352;-72
2022/06/17 06:13:36;;;;;;;;;;;;;;;;;;5093210;28;19946;-70
2022/06/17 06:16:02;;;;;;;;;;;;;;;;;;5094977;28;20316;-70
2022/06/17 06:18:28;;;;;;;;;;;;;;;;;;5092464;28;19920;-72
2022/06/17 06:20:54;;;;;;;;;;;;;;;;;;5091243;28;19924;-69
2022/06/17 06:23:20;;;;;;;;;;;;;;;;;;5093467;28;20019;-67
2022/06/17 06:25:46;;;;;;;;;;;;;;;;;;5093368;28;19924;-69
2022/06/17 06:28:12;;;;;;;;;;;;;;;;;;5092765;28;19928;-68
2022/06/17 06:30:39;;;;;;;;;;;;;;;;;;5085315;28;19924;-68
2022/06/17 06:33:06;;;;;;;;;;;;;;;;;;5089715;28;19927;-71
2022/06/17 06:35:32;;;;;;;;;;;;;;;;;;5089876;28;20026;-66
2022/06/17 06:37:58;;;;;;;;;;;;;;;;;;5089685;28;19927;-67
2022/06/17 06:40:24;;;;;;;;;;;;;;;;;;5090774;28;19920;-67
2022/06/17 06:42:50;;;;;;;;;;;;;;;;;;5091276;28;19947;-68
2022/06/17 06:45:16;;;;;;;;;;;;;;;;;;5095464;28;20006;-68
2022/06/17 06:47:43;;;;;;;;;;;;;;;;;;5091474;28;20065;-68
2022/06/17 06:50:10;;;;;;;;;;;;;;;;;;5089859;28;19961;-66
2022/06/17 06:52:36;;;;;;;;;;;;;;;;;;5092041;28;19924;-66
2022/06/17 06:55:02;;;;;;;;;;;;;;;;;;5092780;28;19924;-67
2022/06/17 06:57:28;;;;;;;;;;;;;;;;;;5091143;28;20004;-66
2022/06/17 06:59:54;;;;;;;;;;;;;;;;;;5092358;28;20310;-65
2022/06/17 07:02:20;;;;;;;;;;;;;;;;;;5092010;28;19920;-67
2022/06/17 07:04:46;;;;;;;;;;;;;;;;;;5090380;28;20375;-68
2022/06/17 07:07:12;;;;;;;;;;;;;;;;;;5092861;28;19932;-68
2022/06/17 07:09:38;;;;;;;;;;;;;;;;;;5091809;28;20366;-66
2022/06/17 07:12:04;;;;;;;;;;;;;;;;;;5091281;28;20041;-66
2022/06/17 07:14:30;;;;;;;;;;;;;;;;;;5092127;28;20286;-66
2022/06/17 07:16:56;;;;;;;;;;;;;;;;;;5090557;28;19924;-67
2022/06/17 07:19:22;;;;;;;;;;;;;;;;;;5092007;28;19977;-66
2022/06/17 07:21:51;;;;;;;;;;;;;;;;;;5090772;28;19920;-66
2022/06/17 07:24:17;;;;;;;;;;;;;;;;;;5091781;28;19924;-66
2022/06/17 07:26:43;;;;;;;;;;;;;;;;;;5091060;28;19928;-66
2022/06/17 07:29:09;;;;;;;;;;;;;;;;;;5091946;28;20039;-66
2022/06/17 07:31:34;;;;;;;;;;;;;;;;;;5091089;28;19927;-68
2022/06/17 07:34:00;;;;;;;;;;;;;;;;;;5090941;28;19920;-66
2022/06/17 07:41:56;;;;;;;;;;;;;;;;;;5094614;28;20320;-69
2022/06/17 07:44:21;;;;;;;;;;;;;;;;;;5091784;28;19932;-71
2022/06/17 07:46:47;;;;;;;;;;;;;;;;;;5090506;28;19924;-67
2022/06/17 07:49:15;;;;;;;;;;;;;;;;;;5090107;28;22320;-66
2022/06/17 07:51:41;;;;;;;;;;;;;;;;;;5091830;28;19930;-68
2022/06/17 07:54:07;;;;;;;;;;;;;;;;;;5073245;28;20278;-66
2022/06/17 07:56:33;;;;;;;;;;;;;;;;;;5089531;28;19928;-66
2022/06/17 07:58:59;;;;;;;;;;;;;;;;;;5091762;28;19920;-67
2022/06/17 08:01:25;;;;;;;;;;;;;;;;;;5090994;28;20281;-66
2022/06/17 08:03:51;;;;;;;;;;;;;;;;;;5091181;28;19920;-65
2022/06/17 08:06:18;;;;;;;;;;;;;;;;;;5091356;28;20355;-64
2022/06/17 08:08:44;;;;;;;;;;;;;;;;;;5091670;28;19924;-66
2022/06/17 08:11:10;;;;;;;;;;;;;;;;;;5091088;28;19969;-67
2022/06/17 08:13:36;;;;;;;;;;;;;;;;;;5090951;28;19989;-67
2022/06/17 08:16:01;;;;;;;;;;;;;;;;;;5091982;28;19931;-67
2022/06/17 08:18:27;;;;;;;;;;;;;;;;;;5090831;28;19943;-67
2022/06/17 08:20:53;;;;;;;;;;;;;;;;;;5090079;28;19920;-67
2022/06/17 08:23:21;;;;;;;;;;;;;;;;;;5094645;28;19920;-67
2022/06/17 08:25:47;;;;;;;;;;;;;;;;;;5096551;28;19924;-66
2022/06/17 08:28:12;;;;;;;;;;;;;;;;;;5091510;28;20076;-67
2022/06/17 08:30:39;;;;;;;;;;;;;;;;;;5091118;28;19947;-67
2022/06/17 08:33:05;;;;;;;;;;;;;;;;;;5090118;28;19927;-68
2022/06/17 08:35:31;;;;;;;;;;;;;;;;;;5091406;28;20351;-67
2022/06/17 08:37:57;;;;;;;;;;;;;;;;;;5091126;28;20006;-68
2022/06/17 08:40:23;;;;;;;;;;;;;;;;;;5088546;28;19920;-66
2022/06/17 08:42:49;;;;;;;;;;;;;;;;;;5090816;28;20049;-67
2022/06/17 08:45:15;;;;;;;;;;;;;;;;;;5090292;28;20014;-69
2022/06/17 08:47:41;;;;;;;;;;;;;;;;;;5089487;28;19935;-69
2022/06/17 08:50:07;;;;;;;;;;;;;;;;;;5090810;28;19927;-68
2022/06/17 08:52:33;;;;;;;;;;;;;;;;;;5090766;28;19924;-66
2022/06/17 08:54:59;;;;;;;;;;;;;;;;;;5089185;28;20592;-65
2022/06/17 08:57:25;;;;;;;;;;;;;;;;;;5090820;28;19920;-66
2022/06/17 08:59:51;;;;;;;;;;;;;;;;;;5091129;28;19920;-67
2022/06/17 09:02:19;;;;;;;;;;;;;;;;;;5089931;28;19924;-68
2022/06/17 09:04:45;;;;;;;;;;;;;;;;;;5092307;28;20285;-69
2022/06/17 09:07:11;;;;;;;;;;;;;;;;;;5091180;28;20014;-69
2022/06/17 09:09:37;;;;;;;;;;;;;;;;;;5088782;28;20286;-68
2022/06/17 09:12:03;;;;;;;;;;;;;;;;;;5090934;28;19967;-68
2022/06/17 09:14:29;;;;;;;;;;;;;;;;;;5090381;28;19920;-66
2022/06/17 09:16:55;;;;;;;;;;;;;;;;;;5090778;28;19919;-66
2022/06/17 09:19:21;;;;;;;;;;;;;;;;;;5090152;28;19924;-66
2022/06/17 09:21:47;;;;;;;;;;;;;;;;;;5089034;28;19973;-66
2022/06/17 09:24:13;;;;;;;;;;;;;;;;;;5089144;28;19986;-69
2022/06/17 09:26:39;;;;;;;;;;;;;;;;;;5091828;28;20375;-68
2022/06/17 09:29:05;;;;;;;;;;;;;;;;;;5092118;28;19973;-67
2022/06/17 09:31:31;;;;;;;;;;;;;;;;;;5090257;28;19939;-68
2022/06/17 09:33:57;;;;;;;;;;;;;;;;;;5093411;28;19920;-67
2022/06/17 09:36:23;;;;;;;;;;;;;;;;;;5094029;28;19967;-66
2022/06/17 09:38:49;;;;;;;;;;;;;;;;;;5093721;28;19924;-68
2022/06/17 09:41:15;;;;;;;;;;;;;;;;;;5093565;28;20231;-67
2022/06/17 09:43:41;;;;;;;;;;;;;;;;;;5093812;28;19927;-68
2022/06/17 09:46:07;;;;;;;;;;;;;;;;;;5094003;28;19924;-67
2022/06/17 09:48:33;;;;;;;;;;;;;;;;;;5074863;28;19928;-67
2022/06/17 09:50:59;;;;;;;;;;;;;;;;;;5094139;28;19920;-67
2022/06/17 09:53:25;;;;;;;;;;;;;;;;;;5093665;28;19943;-67
2022/06/17 09:55:52;;;;;;;;;;;;;;;;;;5092800;28;19930;-68
2022/06/17 09:58:18;;;;;;;;;;;;;;;;;;5089028;28;19928;-68
2022/06/17 10:00:44;;;;;;;;;;;;;;;;;;5087653;28;19931;-68
2022/06/17 10:03:10;;;;;;;;;;;;;;;;;;5093067;28;19942;-67
2022/06/17 10:05:36;;;;;;;;;;;;;;;;;;5092913;28;19920;-67
2022/06/17 10:08:02;;;;;;;;;;;;;;;;;;5092366;28;19947;-68
2022/06/17 10:10:28;;;;;;;;;;;;;;;;;;5091164;28;19920;-69
2022/06/17 10:12:54;;;;;;;;;;;;;;;;;;5091961;28;19924;-68
2022/06/17 10:15:20;;;;;;;;;;;;;;;;;;5093397;28;19928;-68
2022/06/17 10:20:50;;;;;;;;;;;;;;;;;;5050250;28;20031;-67
2022/06/17 10:23:16;;;;;;;;;;;;;;;;;;5049958;28;20047;-67
2022/06/17 10:25:42;;;;;;;;;;;;;;;;;;5068995;28;19973;-67
2022/06/17 10:28:08;;;;;;;;;;;;;;;;;;5093567;28;19924;-66
2022/06/17 10:30:34;;;;;;;;;;;;;;;;;;5092684;28;19931;-65
2022/06/17 10:33:00;;;;;;;;;;;;;;;;;;5093079;28;19923;-65
2022/06/17 10:35:26;;;;;;;;;;;;;;;;;;5093154;28;19920;-65
2022/06/17 10:37:52;;;;;;;;;;;;;;;;;;5093533;28;20286;-67
2022/06/17 10:40:18;;;;;;;;;;;;;;;;;;5092650;28;19920;-66
2022/06/17 10:42:46;;;;;;;;;;;;;;;;;;5092999;28;19928;-67
2022/06/17 10:45:12;;;;;;;;;;;;;;;;;;5092467;28;19924;-66
2022/06/17 10:47:38;;;;;;;;;;;;;;;;;;5092651;28;19930;-65
2022/06/17 10:50:05;;;;;;;;;;;;;;;;;;5093207;28;19959;-66
2022/06/17 10:52:32;;;;;;;;;;;;;;;;;;5093412;28;19969;-68
2022/06/17 10:54:58;;;;;;;;;;;;;;;;;;5091167;28;19967;-67
2022/06/17 10:57:24;;;;;;;;;;;;;;;;;;5093090;28;19959;-67
2022/06/17 10:59:50;;;;;;;;;;;;;;;;;;5092714;28;19947;-67
2022/06/17 11:02:16;;;;;;;;;;;;;;;;;;5092330;28;19969;-66
2022/06/17 11:04:43;;;;;;;;;;;;;;;;;;5092653;28;19977;-65
2022/06/17 11:07:09;;;;;;;;;;;;;;;;;;5091152;28;19928;-67
2022/06/17 11:09:35;;;;;;;;;;;;;;;;;;5092283;28;20378;-66
2022/06/17 11:12:04;;;;;;;;;;;;;;;;;;5092477;28;19946;-67
2022/06/17 11:14:30;;;;;;;;;;;;;;;;;;5091156;28;19927;-67
2022/06/17 11:16:56;;;;;;;;;;;;;;;;;;5092300;28;20278;-67
2022/06/17 11:19:23;;;;;;;;;;;;;;;;;;5092489;28;20036;-68
2022/06/17 11:21:49;;;;;;;;;;;;;;;;;;5091021;28;19927;-68
2022/06/17 11:24:15;;;;;;;;;;;;;;;;;;5090751;28;20294;-68
2022/06/17 11:26:41;;;;;;;;;;;;;;;;;;5091715;28;19924;-67
2022/06/17 11:29:06;;;;;;;;;;;;;;;;;;5091878;28;19920;-66
2022/06/17 11:31:32;;;;;;;;;;;;;;;;;;5091450;28;19951;-66
2022/06/17 11:33:59;;;;;;;;;;;;;;;;;;5092454;28;20460;-65
2022/06/17 11:36:24;;;;;;;;;;;;;;;;;;5092449;28;19920;-67
2022/06/17 11:38:50;;;;;;;;;;;;;;;;;;5091524;28;19920;-68
2022/06/17 11:41:16;;;;;;;;;;;;;;;;;;5090588;28;20192;-66
2022/06/17 11:43:43;;;;;;;;;;;;;;;;;;5091715;28;19932;-65
2022/06/17 11:46:09;;;;;;;;;;;;;;;;;;5091056;28;19977;-67
2022/06/17 11:48:36;;;;;;;;;;;;;;;;;;5092317;28;20337;-67
2022/06/17 11:51:02;;;;;;;;;;;;;;;;;;5091830;28;19919;-68
2022/06/17 11:53:28;;;;;;;;;;;;;;;;;;5091579;28;20310;-69
2022/06/17 11:55:54;;;;;;;;;;;;;;;;;;5092175;28;19920;-70
2022/06/17 11:58:20;;;;;;;;;;;;;;;;;;5090439;28;19924;-70
2022/06/17 12:00:49;;;;;;;;;;;;;;;;;;5091551;28;19920;-68
2022/06/17 12:03:15;;;;;;;;;;;;;;;;;;5092054;28;19927;-68
2022/06/17 12:05:41;;;;;;;;;;;;;;;;;;5092080;28;19923;-67
2022/06/17 12:08:07;;;;;;;;;;;;;;;;;;5091275;28;19927;-67
2022/06/17 12:10:33;;;;;;;;;;;;;;;;;;5091677;28;19981;-67
2022/06/17 12:12:59;;;;;;;;;;;;;;;;;;5091925;28;19942;-67
2022/06/17 12:15:25;;;;;;;;;;;;;;;;;;5091139;28;19920;-67
2022/06/17 12:17:51;;;;;;;;;;;;;;;;;;5091942;28;19932;-67
2022/06/17 12:20:17;;;;;;;;;;;;;;;;;;5091810;28;20259;-68
2022/06/17 12:22:43;;;;;;;;;;;;;;;;;;5090849;28;19946;-67
2022/06/17 12:25:09;;;;;;;;;;;;;;;;;;5091640;28;19920;-67
2022/06/17 12:27:35;;;;;;;;;;;;;;;;;;5090911;28;19990;-69
2022/06/17 12:30:01;;;;;;;;;;;;;;;;;;5090200;28;19920;-67
2022/06/17 12:32:27;;;;;;;;;;;;;;;;;;5090800;28;20353;-67
2022/06/17 12:34:53;;;;;;;;;;;;;;;;;;5091079;28;19971;-67
2022/06/17 12:37:19;;;;;;;;;;;;;;;;;;5091273;28;20267;-67
2022/06/17 12:39:45;;;;;;;;;;;;;;;;;;5106518;28;20334;-67
2022/06/17 12:42:11;;;;;;;;;;;;;;;;;;5105143;28;19924;-67
2022/06/17 12:44:38;;;;;;;;;;;;;;;;;;5090971;28;19924;-67
2022/06/17 12:47:04;;;;;;;;;;;;;;;;;;5090072;28;19932;-69
2022/06/17 12:54:59;;;;;;;;;;;;;;;;;;5091595;28;20360;-69
2022/06/17 12:57:25;;;;;;;;;;;;;;;;;;5091683;28;19924;-69
2022/06/17 12:59:51;;;;;;;;;;;;;;;;;;5089216;28;19921;-68
2022/06/17 13:02:17;;;;;;;;;;;;;;;;;;5091535;28;19924;-68
2022/06/17 13:04:43;;;;;;;;;;;;;;;;;;5091360;28;20344;-67
2022/06/17 13:07:09;;;;;;;;;;;;;;;;;;5091896;28;19924;-68
2022/06/17 13:09:35;;;;;;;;;;;;;;;;;;5095135;28;19927;-68
2022/06/17 13:12:02;;;;;;;;;;;;;;;;;;5095047;28;19985;-68
2022/06/17 13:14:28;;;;;;;;;;;;;;;;;;5094581;28;19924;-68
2022/06/17 13:16:54;;;;;;;;;;;;;;;;;;5095265;28;19968;-69
2022/06/17 13:19:20;;;;;;;;;;;;;;;;;;5094738;28;19951;-69
2022/06/17 13:21:46;;;;;;;;;;;;;;;;;;5094366;28;19924;-67
2022/06/17 13:24:12;;;;;;;;;;;;;;;;;;5092283;28;19924;-67
2022/06/17 13:26:38;;;;;;;;;;;;;;;;;;5093721;28;20026;-68
2022/06/17 13:29:04;;;;;;;;;;;;;;;;;;5092685;28;19920;-68
2022/06/17 13:31:30;;;;;;;;;;;;;;;;;;5094674;28;19920;-66
2022/06/17 13:33:56;;;;;;;;;;;;;;;;;;5094945;28;20460;-66
2022/06/17 13:36:22;;;;;;;;;;;;;;;;;;5094126;28;19993;-68
2022/06/17 13:38:48;;;;;;;;;;;;;;;;;;5094726;28;20019;-68
2022/06/17 13:41:15;;;;;;;;;;;;;;;;;;5076900;28;20003;-69
2022/06/17 13:43:41;;;;;;;;;;;;;;;;;;5092931;28;20015;-68
2022/06/17 13:46:07;;;;;;;;;;;;;;;;;;5092598;28;20010;-68
2022/06/17 13:48:33;;;;;;;;;;;;;;;;;;5094673;28;20488;-69
2022/06/17 13:50:58;;;;;;;;;;;;;;;;;;5092823;28;19939;-69
2022/06/17 13:53:24;;;;;;;;;;;;;;;;;;5093054;28;19920;-69
2022/06/17 13:55:50;;;;;;;;;;;;;;;;;;5093080;28;20013;-66
2022/06/17 13:58:16;;;;;;;;;;;;;;;;;;5093502;28;19920;-66
2022/06/17 14:00:42;;;;;;;;;;;;;;;;;;5094437;28;19970;-66
2022/06/17 14:03:08;;;;;;;;;;;;;;;;;;5093316;28;19950;-66
2022/06/17 14:05:34;;;;;;;;;;;;;;;;;;5075899;28;19969;-66
2022/06/17 14:08:00;;;;;;;;;;;;;;;;;;5092921;28;19924;-66
2022/06/17 14:10:26;;;;;;;;;;;;;;;;;;5094474;28;20312;-66
2022/06/17 14:12:52;;;;;;;;;;;;;;;;;;5094342;28;20322;-66
2022/06/17 14:15:18;;;;;;;;;;;;;;;;;;5093902;28;20002;-66
2022/06/17 14:17:44;;;;;;;;;;;;;;;;;;5092611;28;19924;-66
2022/06/17 14:20:10;;;;;;;;;;;;;;;;;;5091749;28;19924;-68
2022/06/17 14:22:38;;;;;;;;;;;;;;;;;;5093437;28;19920;-68
2022/06/17 14:25:04;;;;;;;;;;;;;;;;;;5093957;28;19920;-68
2022/06/17 14:27:30;;;;;;;;;;;;;;;;;;5074534;28;19931;-68
2022/06/17 14:29:56;;;;;;;;;;;;;;;;;;5071492;28;19960;-68
2022/06/17 14:32:22;;;;;;;;;;;;;;;;;;5072548;28;20017;-68
2022/06/17 14:34:48;;;;;;;;;;;;;;;;;;5072431;28;19920;-68
2022/06/17 14:37:14;;;;;;;;;;;;;;;;;;5071691;28;19936;-68
2022/06/17 14:39:40;;;;;;;;;;;;;;;;;;5073648;28;20276;-68
2022/06/17 14:42:06;;;;;;;;;;;;;;;;;;5073418;28;19920;-68
2022/06/17 14:44:32;;;;;;;;;;;;;;;;;;5072794;28;20670;-68
2022/06/17 14:46:58;;;;;;;;;;;;;;;;;;5073310;28;19925;-68
2022/06/17 14:49:24;;;;;;;;;;;;;;;;;;5073491;28;19920;-68
2022/06/17 14:51:50;;;;;;;;;;;;;;;;;;5072727;28;19924;-68
2022/06/17 14:54:15;;;;;;;;;;;;;;;;;;5071878;28;20359;-68
2022/06/17 14:56:41;;;;;;;;;;;;;;;;;;5073597;28;19920;-68
2022/06/17 14:59:07;;;;;;;;;;;;;;;;;;5071642;28;20333;-68
2022/06/17 15:01:33;;;;;;;;;;;;;;;;;;5072073;28;19924;-68
2022/06/17 15:03:59;;;;;;;;;;;;;;;;;;5072134;28;20441;-68
2022/06/17 15:06:28;;;;;;;;;;;;;;;;;;5072468;28;19925;-68
2022/06/17 15:08:54;;;;;;;;;;;;;;;;;;5071919;28;20371;-68
2022/06/17 15:11:20;;;;;;;;;;;;;;;;;;5071812;28;19928;-68
2022/06/17 15:16:30;;;;;;;;;;;;;;;;;;5073101;28;20466;-67
2022/06/17 15:18:56;;;;;;;;;;;;;;;;;;5072972;28;19927;-67
2022/06/17 15:21:22;;;;;;;;;;;;;;;;;;5072106;28;19959;-67
2022/06/17 15:23:48;;;;;;;;;;;;;;;;;;5072978;28;19920;-67
2022/06/17 15:26:14;;;;;;;;;;;;;;;;;;5081590;28;19972;-67
2022/06/17 15:28:40;;;;;;;;;;;;;;;;;;5092483;28;20058;-67
2022/06/17 15:31:06;;;;;;;;;;;;;;;;;;5092688;28;19919;-67
2022/06/17 15:33:32;;;;;;;;;;;;;;;;;;5091527;28;19943;-67
2022/06/17 15:35:58;;;;;;;;;;;;;;;;;;5092394;28;19995;-67
2022/06/17 15:38:24;;;;;;;;;;;;;;;;;;5092864;28;19924;-67
2022/06/17 15:40:50;;;;;;;;;;;;;;;;;;5092706;28;19920;-67
2022/06/17 15:43:16;;;;;;;;;;;;;;;;;;5090219;28;20019;-67
2022/06/17 15:45:43;;;;;;;;;;;;;;;;;;5090970;28;19924;-67
2022/06/17 15:48:09;;;;;;;;;;;;;;;;;;5091141;28;20021;-67
2022/06/17 15:50:35;;;;;;;;;;;;;;;;;;5090400;28;20416;-67
2022/06/17 15:53:01;;;;;;;;;;;;;;;;;;5092718;28;20439;-67
2022/06/17 15:55:27;;;;;;;;;;;;;;;;;;5091186;28;19920;-67
2022/06/17 15:57:53;;;;;;;;;;;;;;;;;;5090685;28;19931;-67
2022/06/17 16:00:20;;;;;;;;;;;;;;;;;;5092327;28;19920;-67
2022/06/17 16:02:46;;;;;;;;;;;;;;;;;;5092454;28;19973;-67
2022/06/17 16:05:12;;;;;;;;;;;;;;;;;;5091500;28;19932;-67
2022/06/17 16:07:38;;;;;;;;;;;;;;;;;;5092611;28;20026;-67
2022/06/17 16:10:04;;;;;;;;;;;;;;;;;;5092320;28;20033;-67
2022/06/17 16:12:30;;;;;;;;;;;;;;;;;;5090052;28;19920;-67
2022/06/17 16:14:56;;;;;;;;;;;;;;;;;;5092305;28;19924;-67
2022/06/17 16:17:22;;;;;;;;;;;;;;;;;;5092394;28;20639;-67
2022/06/17 16:19:48;;;;;;;;;;;;;;;;;;5090023;28;20078;-67
2022/06/17 16:22:13;;;;;;;;;;;;;;;;;;5090710;28;20397;-67
2022/06/17 16:24:40;;;;;;;;;;;;;;;;;;5092386;28;19924;-67
2022/06/17 16:27:06;;;;;;;;;;;;;;;;;;5075185;28;19928;-67
2022/06/17 16:29:32;;;;;;;;;;;;;;;;;;5072001;28;20278;-67
2022/06/17 16:31:58;;;;;;;;;;;;;;;;;;5071772;28;19985;-67
2022/06/17 16:34:24;;;;;;;;;;;;;;;;;;5071378;28;20351;-67
2022/06/17 16:36:50;;;;;;;;;;;;;;;;;;5071887;28;19920;-67
2022/06/17 16:39:16;;;;;;;;;;;;;;;;;;5071829;28;19924;-67
2022/06/17 16:44:27;;;;;;;;;;;;;;;;;;5075474;28;20039;-67
2022/06/17 16:46:53;;;;;;;;;;;;;;;;;;5075756;28;20007;-67
2022/06/17 16:49:18;;;;;;;;;;;;;;;;;;5073591;28;19942;-67
2022/06/17 16:51:44;;;;;;;;;;;;;;;;;;5075718;28;19924;-67
2022/06/17 16:54:10;;;;;;;;;;;;;;;;;;5075601;28;19966;-67
2022/06/17 16:56:37;;;;;;;;;;;;;;;;;;5074899;28;19989;-67
2022/06/17 16:59:03;;;;;;;;;;;;;;;;;;5073929;28;19939;-67